createdAt,value
2018-03-26T00:02:26.891Z,53.65
2018-03-26T00:04:58.759Z,53.87
2018-03-26T00:07:33.816Z,54.02
2018-03-26T00:10:08.509Z,54.50
2018-03-26T00:12:40.146Z,54.71
2018-03-26T00:15:16.677Z,54.58
2018-03-26T00:17:48.901Z,54.83
2018-03-26T00:20:21.338Z,54.77
2018-03-26T00:22:53.063Z,54.84
2018-03-26T00:25:24.054Z,54.61
2018-03-26T00:27:57.243Z,54.89
2018-03-26T00:30:30.968Z,54.80
2018-03-26T00:33:03.398Z,55.05
2018-03-26T00:35:35.436Z,54.79
2018-03-26T00:38:06.840Z,55.11
2018-03-26T00:40:38.856Z,55.45
2018-03-26T00:43:18.160Z,55.78
2018-03-26T00:46:13.522Z,56.03
2018-03-26T00:53:34.742Z,56.04
2018-03-26T00:56:06.470Z,56.67
2018-03-26T00:58:38.249Z,56.87
2018-03-26T01:01:10.892Z,56.48
2018-03-26T01:03:43.158Z,56.37
2018-03-26T01:06:17.090Z,56.89
2018-03-26T01:08:48.614Z,57.34
2018-03-26T01:11:21.170Z,57.53
2018-03-26T01:13:52.839Z,57.11
2018-03-26T01:16:25.320Z,57.51
2018-03-26T01:18:57.198Z,57.98
2018-03-26T01:21:28.947Z,57.85
2018-03-26T01:24:01.984Z,57.71
2018-03-26T01:26:33.666Z,57.80
2018-03-26T01:29:05.968Z,58.47
2018-03-26T01:31:38.115Z,59.34
2018-03-26T01:34:10.957Z,59.57
2018-03-26T01:36:43.253Z,60.28
2018-03-26T01:39:14.912Z,60.06
2018-03-26T01:41:46.754Z,60.43
2018-03-26T01:44:18.882Z,60.35
2018-03-26T01:46:50.798Z,60.14
2018-03-26T01:49:23.577Z,60.29
2018-03-26T01:51:56.150Z,60.17
2018-03-26T01:54:34.376Z,60.84
2018-03-26T01:57:08.225Z,61.09
2018-03-26T01:59:40.367Z,61.21
2018-03-26T02:02:13.991Z,61.48
2018-03-26T02:04:45.578Z,61.47
2018-03-26T02:07:17.875Z,61.46
2018-03-26T02:09:49.801Z,62.01
2018-03-26T02:12:21.157Z,61.86
2018-03-26T02:14:52.709Z,61.59
2018-03-26T02:17:24.655Z,61.98
2018-03-26T02:19:56.747Z,61.75
2018-03-26T02:22:28.856Z,61.28
2018-03-26T02:24:59.686Z,61.52
2018-03-26T02:27:31.618Z,61.61
2018-03-26T02:30:04.776Z,61.50
2018-03-26T02:32:36.273Z,61.57
2018-03-26T02:35:07.946Z,61.63
2018-03-26T02:37:39.198Z,61.56
2018-03-26T02:40:10.992Z,61.63
2018-03-26T02:42:43.364Z,61.34
2018-03-26T02:45:22.621Z,60.84
2018-03-26T02:47:53.767Z,60.52
2018-03-26T02:50:24.892Z,61.11
2018-03-26T02:52:56.084Z,61.17
2018-03-26T02:55:27.631Z,61.14
2018-03-26T02:57:58.710Z,61.12
2018-03-26T03:00:32.314Z,61.03
2018-03-26T03:03:03.323Z,60.81
2018-03-26T03:05:34.597Z,60.67
2018-03-26T03:08:05.608Z,60.06
2018-03-26T03:10:37.097Z,59.93
2018-03-26T03:13:08.218Z,59.89
2018-03-26T03:15:39.733Z,59.95
2018-03-26T03:18:12.366Z,60.19
2018-03-26T03:20:43.750Z,60.59
2018-03-26T03:23:15.660Z,60.17
2018-03-26T03:25:50.031Z,60.22
2018-03-26T03:28:21.407Z,59.76
2018-03-26T03:30:52.795Z,59.84
2018-03-26T03:33:23.941Z,59.51
2018-03-26T03:35:55.621Z,59.45
2018-03-26T03:38:27.132Z,59.70
2018-03-26T03:40:59.706Z,60.43
2018-03-26T03:43:30.797Z,60.73
2018-03-26T03:46:04.007Z,61.01
2018-03-26T03:48:36.538Z,61.04
2018-03-26T03:51:08.030Z,60.70
2018-03-26T03:53:39.200Z,60.88
2018-03-26T03:56:11.841Z,60.69
2018-03-26T03:58:49.961Z,60.95
2018-03-26T04:01:21.373Z,61.12
2018-03-26T04:03:52.132Z,61.50
2018-03-26T04:06:23.913Z,61.78
2018-03-26T04:08:55.426Z,62.03
2018-03-26T04:11:26.797Z,61.88
2018-03-26T04:13:58.171Z,62.07
2018-03-26T04:16:30.142Z,62.18
2018-03-26T04:19:02.162Z,61.86
2018-03-26T04:21:34.843Z,61.59
2018-03-26T04:24:06.112Z,61.25
2018-03-26T04:26:37.322Z,61.89
2018-03-26T04:32:05.970Z,62.25
2018-03-26T04:34:53.440Z,62.71
2018-03-26T04:37:24.490Z,62.74
2018-03-26T04:39:55.990Z,62.98
2018-03-26T04:42:28.985Z,63.14
2018-03-26T04:45:00.214Z,63.40
2018-03-26T04:47:33.595Z,64.04
2018-03-26T04:50:05.661Z,64.43
2018-03-26T04:52:37.598Z,64.07
2018-03-26T04:55:09.302Z,63.74
2018-03-26T04:57:40.819Z,64.00
2018-03-26T05:00:14.641Z,64.48
2018-03-26T05:02:46.425Z,64.21
2018-03-26T05:05:19.378Z,63.56
2018-03-26T05:07:50.611Z,63.14
2018-03-26T05:13:05.966Z,62.62
2018-03-26T05:15:48.583Z,62.96
2018-03-26T05:18:19.828Z,62.57
2018-03-26T05:20:52.041Z,62.50
2018-03-26T05:23:23.732Z,62.98
2018-03-26T05:25:55.516Z,62.62
2018-03-26T05:28:28.418Z,62.15
2018-03-26T05:31:01.670Z,62.23
2018-03-26T05:33:33.535Z,62.50
2018-03-26T05:36:05.968Z,62.55
2018-03-26T05:38:39.448Z,62.91
2018-03-26T05:41:12.102Z,63.40
2018-03-26T05:43:44.363Z,63.35
2018-03-26T05:46:17.835Z,63.40
2018-03-26T05:48:52.304Z,63.49
2018-03-26T05:51:29.287Z,63.87
2018-03-26T05:54:01.883Z,64.29
2018-03-26T05:56:35.512Z,64.17
2018-03-26T05:59:06.672Z,64.47
2018-03-26T06:01:38.556Z,65.11
2018-03-26T06:04:12.046Z,64.32
2018-03-26T06:06:50.328Z,63.79
2018-03-26T06:09:23.506Z,63.45
2018-03-26T06:11:54.940Z,63.53
2018-03-26T06:14:26.524Z,63.28
2018-03-26T06:17:13.294Z,63.22
2018-03-26T06:19:46.058Z,63.49
2018-03-26T06:22:18.122Z,63.61
2018-03-26T06:24:49.774Z,64.11
2018-03-26T06:27:22.130Z,64.67
2018-03-26T06:29:55.055Z,64.75
2018-03-26T06:38:32.983Z,65.98
2018-03-26T06:41:04.493Z,66.62
2018-03-26T06:43:43.613Z,66.55
2018-03-26T06:46:20.448Z,66.13
2018-03-26T06:48:59.539Z,65.35
2018-03-26T06:51:31.423Z,64.61
2018-03-26T06:54:09.850Z,64.49
2018-03-26T07:01:59.496Z,64.92
2018-03-26T07:04:32.038Z,64.86
2018-03-26T07:07:04.114Z,64.89
2018-03-26T07:09:45.012Z,64.28
2018-03-26T07:12:20.248Z,64.44
2018-03-26T07:14:51.547Z,63.64
2018-03-26T07:17:25.264Z,63.07
2018-03-26T07:19:57.792Z,62.40
2018-03-26T07:22:30.283Z,61.61
2018-03-26T07:25:02.515Z,61.11
2018-03-26T07:27:41.014Z,60.06
2018-03-26T07:38:16.019Z,59.83
2018-03-26T07:40:47.444Z,59.95
2018-03-26T07:43:21.309Z,59.98
2018-03-26T07:45:57.545Z,59.96
2018-03-26T07:48:37.716Z,59.15
2018-03-26T07:51:09.408Z,58.19
2018-03-26T07:53:41.926Z,57.46
2018-03-26T07:56:21.695Z,57.09
2018-03-26T07:58:55.114Z,56.54
2018-03-26T08:04:29.963Z,56.12
2018-03-26T08:07:01.727Z,55.57
2018-03-26T08:24:27.420Z,50.08
2018-03-26T08:27:00.798Z,49.75
2018-03-26T08:29:34.966Z,48.49
2018-03-26T08:32:06.752Z,47.93
2018-03-26T08:37:19.331Z,47.17
2018-03-26T08:39:50.432Z,47.45
2018-03-26T08:42:22.342Z,47.31
2018-03-26T08:44:54.627Z,46.20
2018-03-26T08:47:26.372Z,46.92
2018-03-26T08:49:58.264Z,45.88
2018-03-26T08:52:30.285Z,46.23
2018-03-26T08:55:02.749Z,44.90
2018-03-26T08:57:33.969Z,44.10
2018-03-26T09:00:07.974Z,44.02
2018-03-26T09:02:40.231Z,44.15
2018-03-26T09:05:13.890Z,43.33
2018-03-26T09:07:45.642Z,43.15
2018-03-26T09:10:16.975Z,42.12
2018-03-26T09:12:48.221Z,41.62
2018-03-26T09:15:22.639Z,40.85
2018-03-26T09:17:55.799Z,40.02
2018-03-26T09:20:26.756Z,40.34
2018-03-26T09:22:57.831Z,40.08
2018-03-26T09:25:29.373Z,38.94
2018-03-26T09:28:00.888Z,38.06
2018-03-26T09:30:33.413Z,38.19
2018-03-26T09:33:04.530Z,37.99
2018-03-26T09:35:36.484Z,35.95
2018-03-26T09:38:07.900Z,36.06
2018-03-26T09:40:39.722Z,35.61
2018-03-26T09:43:11.104Z,37.17
2018-03-26T09:45:42.537Z,36.89
2018-03-26T09:48:13.465Z,35.38
2018-03-26T09:50:45.738Z,35.83
2018-03-26T09:53:17.178Z,35.23
2018-03-26T09:55:50.132Z,34.91
2018-03-26T09:58:27.432Z,34.29
2018-03-26T10:01:05.142Z,34.03
2018-03-26T10:03:41.192Z,33.68
2018-03-26T10:06:13.997Z,33.51
2018-03-26T10:08:48.218Z,32.60
2018-03-26T10:11:20.210Z,32.07
2018-03-26T10:13:53.740Z,31.96
2018-03-26T10:16:24.959Z,34.43
2018-03-26T10:19:07.441Z,35.05
2018-03-26T10:21:40.016Z,34.76
2018-03-26T10:24:11.840Z,34.19
2018-03-26T10:26:59.843Z,34.96
2018-03-26T10:29:38.727Z,35.17
2018-03-26T10:32:14.900Z,35.75
2018-03-26T10:37:40.157Z,37.02
2018-03-26T10:40:13.345Z,34.54
2018-03-26T10:42:56.599Z,35.08
2018-03-26T10:45:41.435Z,35.42
2018-03-26T10:48:13.184Z,33.62
2018-03-26T10:50:58.636Z,33.66
2018-03-26T10:53:32.459Z,34.34
2018-03-26T10:56:06.601Z,34.02
2018-03-26T10:58:41.970Z,35.00
2018-03-26T11:01:15.257Z,35.03
2018-03-26T11:03:48.176Z,34.67
2018-03-26T11:06:19.330Z,34.69
2018-03-26T11:08:52.077Z,34.78
2018-03-26T11:11:24.059Z,35.19
2018-03-26T11:13:57.413Z,35.14
2018-03-26T11:16:29.842Z,35.97
2018-03-26T11:19:05.751Z,37.29
2018-03-26T11:21:53.535Z,37.70
2018-03-26T11:24:28.147Z,37.23
2018-03-26T11:27:00.654Z,36.66
2018-03-26T11:29:32.320Z,34.38
2018-03-26T11:32:05.937Z,34.41
2018-03-26T11:34:38.301Z,34.96
2018-03-26T11:37:09.612Z,35.15
2018-03-26T11:39:54.440Z,34.19
2018-03-26T11:42:27.728Z,33.02
2018-03-26T11:45:05.791Z,33.51
2018-03-26T11:47:37.903Z,33.02
2018-03-26T11:50:15.459Z,32.81
2018-03-26T11:52:47.103Z,33.06
2018-03-26T11:55:18.223Z,32.47
2018-03-26T11:57:49.223Z,32.87
2018-03-26T12:03:17.181Z,33.36
2018-03-26T12:05:52.941Z,34.06
2018-03-26T12:08:24.403Z,34.14
2018-03-26T12:10:56.277Z,35.46
2018-03-26T12:13:27.744Z,35.35
2018-03-26T12:16:00.572Z,33.43
2018-03-26T12:18:49.559Z,33.72
2018-03-26T12:21:21.047Z,32.03
2018-03-26T12:24:03.141Z,30.81
2018-03-26T12:26:36.078Z,31.42
2018-03-26T12:29:34.225Z,31.97
2018-03-26T12:32:07.315Z,32.04
2018-03-26T12:36:49.496Z,30.58
2018-03-26T12:39:22.615Z,31.39
2018-03-26T12:41:55.100Z,31.04
2018-03-26T12:44:37.980Z,31.44
2018-03-26T12:47:18.970Z,32.28
2018-03-26T12:49:51.054Z,33.49
2018-03-26T12:52:32.610Z,32.75
2018-03-26T12:55:05.268Z,32.32
2018-03-26T12:58:46.174Z,33.25
2018-03-26T13:01:28.269Z,30.71
2018-03-26T13:03:59.385Z,30.06
2018-03-26T13:06:31.754Z,29.68
2018-03-26T13:09:03.527Z,29.15
2018-03-26T13:11:35.677Z,29.04
2018-03-26T13:14:09.785Z,29.97
2018-03-26T13:16:43.381Z,30.07
2018-03-26T13:19:14.490Z,29.96
2018-03-26T13:21:46.031Z,30.55
2018-03-26T13:24:17.102Z,30.37
2018-03-26T13:26:48.417Z,30.03
2018-03-26T13:29:20.164Z,31.09
2018-03-26T13:31:51.892Z,31.47
2018-03-26T13:34:27.973Z,30.23
2018-03-26T13:37:01.950Z,30.13
2018-03-26T13:39:35.999Z,28.67
2018-03-26T13:42:08.120Z,29.46
2018-03-26T13:44:40.639Z,29.81
2018-03-26T13:47:21.134Z,30.43
2018-03-26T13:49:55.596Z,30.37
2018-03-26T13:52:28.710Z,30.10
2018-03-26T13:55:01.084Z,30.30
2018-03-26T13:57:33.964Z,29.33
2018-03-26T14:00:43.903Z,29.50
2018-03-26T14:03:16.560Z,29.25
2018-03-26T14:05:48.199Z,29.80
2018-03-26T14:08:32.323Z,29.82
2018-03-26T14:11:35.275Z,30.54
2018-03-26T14:14:17.455Z,29.61
2018-03-26T14:17:00.075Z,29.42
2018-03-26T14:19:44.596Z,28.53
2018-03-26T14:22:25.456Z,27.59
2018-03-26T14:24:57.250Z,26.78
2018-03-26T14:27:28.527Z,27.03
2018-03-26T14:30:01.523Z,27.26
2018-03-26T14:32:50.111Z,27.60
2018-03-26T14:35:55.795Z,28.97
2018-03-26T14:38:26.692Z,29.27
2018-03-26T14:40:58.181Z,29.82
2018-03-26T14:43:30.374Z,29.99
2018-03-26T14:46:04.138Z,30.27
2018-03-26T14:48:36.674Z,29.82
2018-03-26T14:51:08.546Z,29.50
2018-03-26T14:53:39.810Z,29.24
2018-03-26T14:56:11.968Z,29.05
2018-03-26T14:58:49.433Z,28.82
2018-03-26T15:01:27.124Z,29.28
2018-03-26T15:04:09.056Z,29.12
2018-03-26T15:06:41.212Z,28.69
2018-03-26T15:09:13.733Z,28.34
2018-03-26T15:11:46.173Z,28.66
2018-03-26T15:14:29.946Z,29.84
2018-03-26T15:17:04.876Z,30.00
2018-03-26T15:19:35.837Z,30.50
2018-03-26T15:22:08.499Z,30.72
2018-03-26T15:24:40.430Z,30.61
2018-03-26T15:27:12.699Z,30.79
2018-03-26T15:29:45.373Z,31.38
2018-03-26T15:32:19.682Z,31.40
2018-03-26T15:34:54.095Z,31.86
2018-03-26T15:37:29.500Z,31.75
2018-03-26T15:40:02.636Z,31.75
2018-03-26T15:42:37.648Z,31.93
2018-03-26T15:48:00.879Z,33.24
2018-03-26T15:50:32.023Z,33.10
2018-03-26T15:53:04.423Z,32.75
2018-03-26T15:55:38.452Z,32.72
2018-03-26T15:58:12.819Z,33.43
2018-03-26T16:03:49.327Z,33.44
2018-03-26T16:06:20.519Z,33.04
2018-03-26T16:08:56.054Z,34.05
2018-03-26T16:11:27.167Z,34.32
2018-03-26T16:13:58.543Z,34.09
2018-03-26T16:16:30.090Z,34.25
2018-03-26T16:19:03.744Z,34.83
2018-03-26T16:21:36.005Z,34.81
2018-03-26T16:24:12.984Z,34.80
2018-03-26T16:26:52.622Z,35.07
2018-03-26T16:29:30.428Z,35.14
2018-03-26T16:32:04.327Z,34.98
2018-03-26T16:34:40.905Z,34.82
2018-03-26T16:37:13.795Z,34.94
2018-03-26T16:39:45.918Z,34.52
2018-03-26T16:42:25.487Z,34.21
2018-03-26T16:45:07.142Z,34.39
2018-03-26T16:47:42.091Z,34.97
2018-03-26T16:50:20.995Z,35.09
2018-03-26T16:52:57.627Z,35.03
2018-03-26T16:55:44.210Z,34.74
2018-03-26T16:58:29.796Z,34.41
2018-03-26T17:01:05.793Z,34.89
2018-03-26T17:03:46.052Z,35.11
2018-03-26T17:06:19.371Z,35.22
2018-03-26T17:08:50.581Z,34.94
2018-03-26T17:11:23.476Z,35.33
2018-03-26T17:13:54.683Z,35.04
2018-03-26T17:16:26.999Z,35.17
2018-03-26T17:18:58.416Z,35.00
2018-03-26T17:21:29.403Z,35.37
2018-03-26T17:24:00.489Z,35.44
2018-03-26T17:26:31.946Z,35.50
2018-03-26T17:29:03.435Z,35.58
2018-03-26T17:31:35.697Z,35.69
2018-03-26T17:34:17.685Z,35.68
2018-03-26T17:36:48.731Z,36.05
2018-03-26T17:39:25.036Z,36.04
2018-03-26T17:41:57.038Z,36.03
2018-03-26T17:44:28.804Z,36.21
2018-03-26T17:47:00.245Z,35.78
2018-03-26T17:49:31.285Z,35.58
2018-03-26T17:52:04.440Z,35.71
2018-03-26T17:57:40.923Z,35.29
2018-03-26T18:00:26.472Z,35.38
2018-03-26T18:02:57.804Z,35.28
2018-03-26T18:05:29.643Z,35.58
2018-03-26T18:08:01.433Z,35.73
2018-03-26T18:10:33.472Z,35.48
2018-03-26T18:13:04.996Z,35.23
2018-03-26T18:15:36.727Z,35.01
2018-03-26T18:18:08.152Z,34.42
2018-03-26T18:20:40.319Z,34.72
2018-03-26T18:23:11.802Z,34.86
2018-03-26T18:25:43.558Z,35.34
2018-03-26T18:28:18.191Z,34.70
2018-03-26T18:30:51.031Z,34.57
2018-03-26T18:33:47.345Z,34.25
2018-03-26T18:36:21.020Z,33.98
2018-03-26T18:38:57.457Z,33.96
2018-03-26T18:41:35.348Z,33.79
2018-03-26T18:44:08.041Z,34.36
2018-03-26T18:46:40.444Z,34.95
2018-03-26T18:49:13.944Z,35.46
2018-03-26T18:51:45.508Z,36.52
2018-03-26T18:54:18.065Z,38.13
2018-03-26T18:56:49.601Z,39.12
2018-03-26T18:59:20.795Z,40.20
2018-03-26T19:01:52.787Z,41.74
2018-03-26T19:04:26.289Z,45.02
2018-03-26T19:06:57.700Z,47.26
2018-03-26T19:09:28.859Z,46.20
2018-03-26T19:12:00.157Z,47.81
2018-03-26T19:14:31.633Z,48.23
2018-03-26T19:17:03.061Z,48.06
2018-03-26T19:19:34.746Z,48.18
2018-03-26T19:22:06.718Z,48.08
2018-03-26T19:37:56.593Z,49.11
2018-03-26T19:40:34.531Z,49.79
2018-03-26T19:43:07.001Z,48.81
2018-03-26T19:45:38.856Z,48.31
2018-03-26T19:48:10.151Z,48.23
2018-03-26T19:50:41.347Z,47.24
2018-03-26T19:53:17.305Z,47.08
2018-03-26T19:55:48.395Z,47.55
2018-03-26T19:58:19.669Z,47.35
2018-03-26T20:00:51.001Z,47.05
2018-03-26T20:03:23.440Z,47.01
2018-03-26T20:05:55.383Z,47.11
2018-03-26T20:08:27.536Z,47.18
2018-03-26T20:10:58.768Z,47.08
2018-03-26T20:26:54.729Z,47.92
2018-03-26T20:29:27.526Z,47.68
2018-03-26T20:31:58.659Z,47.88
2018-03-26T20:34:30.455Z,49.28
2018-03-26T20:37:02.087Z,51.14
2018-03-26T20:39:34.162Z,52.41
2018-03-26T20:42:06.008Z,52.60
2018-03-26T20:44:37.146Z,51.35
2018-03-26T20:47:08.686Z,50.96
2018-03-26T20:55:53.343Z,50.08
2018-03-26T20:58:29.206Z,49.84
2018-03-26T21:01:00.866Z,49.42
2018-03-26T21:03:33.523Z,50.60
2018-03-26T21:06:05.176Z,51.04
2018-03-26T21:08:37.656Z,52.03
2018-03-26T21:11:08.599Z,51.43
2018-03-26T21:13:39.668Z,51.26
2018-03-26T21:16:11.608Z,50.77
2018-03-26T21:18:42.504Z,50.90
2018-03-26T21:21:13.302Z,51.71
2018-03-26T21:23:45.328Z,52.72
2018-03-26T21:26:18.368Z,52.56
2018-03-26T21:28:49.509Z,52.93
2018-03-26T21:31:20.646Z,52.43
2018-03-26T21:33:51.851Z,52.64
2018-03-26T21:36:24.466Z,52.61
2018-03-26T21:49:53.149Z,53.42
2018-03-26T21:52:25.685Z,53.40
2018-03-26T21:55:03.817Z,53.81
2018-03-26T21:57:36.215Z,53.62
2018-03-26T22:00:10.631Z,53.34
2018-03-26T22:02:44.690Z,53.47
2018-03-26T22:05:15.598Z,53.36
2018-03-26T22:07:46.662Z,53.44
2018-03-26T22:19:04.603Z,55.10
2018-03-26T22:21:35.523Z,55.33
2018-03-26T22:24:06.508Z,56.02
2018-03-26T22:26:37.918Z,56.10
2018-03-26T22:29:09.369Z,56.06
2018-03-26T22:31:40.700Z,56.39
2018-03-26T22:34:11.785Z,56.37
2018-03-26T22:36:42.781Z,56.75
2018-03-26T22:46:41.739Z,57.92
2018-03-26T22:49:13.010Z,58.40
2018-03-26T22:51:44.070Z,58.21
2018-03-26T22:54:15.584Z,58.71
2018-03-26T23:09:54.042Z,59.72
2018-03-26T23:12:32.825Z,59.88
2018-03-26T23:15:08.165Z,59.63
2018-03-26T23:17:39.851Z,59.75
2018-03-26T23:20:11.174Z,59.89
2018-03-26T23:22:57.143Z,60.33
2018-03-26T23:32:47.656Z,59.65
2018-03-26T23:35:19.034Z,60.07
2018-03-26T23:37:50.573Z,60.13
2018-03-26T23:40:21.770Z,60.36
2018-03-26T23:42:53.533Z,60.85
2018-03-26T23:45:26.100Z,60.84
2018-03-26T23:47:57.124Z,60.85
2018-03-26T23:50:29.522Z,60.75
2018-03-26T23:53:00.429Z,60.77
2018-03-26T23:55:31.993Z,60.96
2018-03-26T23:58:03.588Z,60.82
